Time;durP1;ratioP1;P1;durP2;ratioP2;P2;SDS_P1;SDS_P2;PMS_P1;PMS_P2;Temp;Humidity;BMP_temperature;BMP_pressure;BME280_temperature;BME280_humidity;BME280_pressure;Samples;Min_cycle;Max_cycle;Signal;HPM_P1;HPM_P2
2021/03/09 00:00:45;;;;;;;7.93;7.13;;;;;;;5.14;59.33;95691.38;5055488;28;20265;-83
2021/03/09 00:03:11;;;;;;;8.70;7.43;;;;;;;5.16;59.44;95690.28;5055281;28;20232;-83
2021/03/09 00:05:37;;;;;;;8.90;8.00;;;;;;;5.21;59.18;95692.38;5055246;28;20240;-82
2021/03/09 00:08:05;;;;;;;14.20;9.00;;;;;;;5.14;59.10;95681.16;5055166;28;20228;-82
2021/03/09 00:10:31;;;;;;;12.03;9.90;;;;;;;5.10;59.29;95685.72;5056146;28;20205;-82
2021/03/09 00:12:58;;;;;;;14.40;11.37;;;;;;;5.02;59.49;95690.72;5055031;28;20255;-82
2021/03/09 00:15:24;;;;;;;14.57;10.83;;;;;;;4.94;59.56;95684.72;5055879;28;20260;-82
2021/03/09 00:17:50;;;;;;;12.63;10.00;;;;;;;4.96;59.45;95686.19;5055562;28;20646;-82
2021/03/09 00:20:17;;;;;;;11.87;9.73;;;;;;;4.97;59.31;95684.44;5054730;28;20663;-83
2021/03/09 00:22:43;;;;;;;14.40;10.40;;;;;;;4.89;59.68;95685.13;5055542;28;20590;-83
2021/03/09 00:25:10;;;;;;;11.83;9.67;;;;;;;4.86;59.59;95677.75;5055770;28;20225;-82
2021/03/09 00:27:39;;;;;;;14.43;10.33;;;;;;;4.86;59.79;95672.66;5055064;28;20707;-82
2021/03/09 00:30:07;;;;;;;12.20;9.87;;;;;;;4.84;59.82;95675.34;5054352;28;20225;-81
2021/03/09 00:32:33;;;;;;;13.47;9.57;;;;;;;4.81;60.04;95674.84;5054778;28;20587;-81
2021/03/09 00:34:59;;;;;;;12.20;9.43;;;;;;;4.82;59.95;95676.41;5055564;28;20246;-82
2021/03/09 00:37:25;;;;;;;11.77;9.83;;;;;;;4.85;59.78;95671.84;5056276;28;20292;-82
2021/03/09 00:39:51;;;;;;;13.07;9.67;;;;;;;4.75;60.39;95675.38;5055335;28;20237;-82
2021/03/09 00:42:17;;;;;;;15.20;10.27;;;;;;;4.65;60.41;95667.72;5054874;28;20234;-82
2021/03/09 00:44:43;;;;;;;12.47;9.83;;;;;;;4.71;59.90;95667.19;5054211;28;20233;-82
2021/03/09 00:47:10;;;;;;;12.87;10.10;;;;;;;4.76;59.64;95659.13;5055678;28;20233;-82
2021/03/09 00:49:36;;;;;;;11.20;9.10;;;;;;;4.66;60.20;95666.00;5055472;28;20228;-83
2021/03/09 00:52:03;;;;;;;11.10;9.27;;;;;;;4.61;60.45;95660.53;5055331;28;20233;-84
2021/03/09 00:54:29;;;;;;;10.70;9.20;;;;;;;4.58;60.26;95659.03;5055459;28;20229;-84
2021/03/09 00:56:55;;;;;;;15.20;9.50;;;;;;;4.61;60.23;95661.31;5055519;28;20260;-83
2021/03/09 00:59:21;;;;;;;9.90;8.90;;;;;;;4.59;60.33;95654.75;5055612;28;20263;-83
2021/03/09 01:01:47;;;;;;;10.93;8.43;;;;;;;4.58;60.37;95653.13;5055877;28;20617;-84
2021/03/09 01:04:13;;;;;;;8.90;7.80;;;;;;;4.58;59.88;95653.94;5055979;28;20605;-82
2021/03/09 01:06:39;;;;;;;9.33;8.33;;;;;;;4.54;60.14;95649.25;5055142;28;20229;-81
2021/03/09 01:09:05;;;;;;;12.77;8.67;;;;;;;4.55;60.42;95649.13;5054873;28;20242;-83
2021/03/09 01:11:32;;;;;;;8.83;7.90;;;;;;;4.50;60.49;95652.06;5055738;28;20244;-84
2021/03/09 01:13:58;;;;;;;9.50;8.40;;;;;;;4.43;60.77;95645.09;5055158;28;20229;-82
2021/03/09 01:16:24;;;;;;;9.53;8.47;;;;;;;4.49;60.24;95642.00;5055791;28;20209;-82
2021/03/09 01:18:50;;;;;;;8.20;7.13;;;;;;;4.50;60.50;95641.06;5055378;28;20780;-82
2021/03/09 01:21:17;;;;;;;9.40;8.00;;;;;;;4.52;60.42;95636.63;5055624;28;20286;-82
2021/03/09 01:23:43;;;;;;;8.53;7.63;;;;;;;4.51;60.35;95638.38;5055023;28;20217;-82
2021/03/09 01:26:09;;;;;;;9.70;7.60;;;;;;;4.48;60.58;95635.31;5055527;28;20251;-82
2021/03/09 01:28:35;;;;;;;9.63;7.70;;;;;;;4.27;61.02;95630.38;5055830;28;20290;-81
2021/03/09 01:31:01;;;;;;;8.77;7.87;;;;;;;4.10;61.63;95629.31;5054643;28;20316;-82
2021/03/09 01:33:27;;;;;;;8.83;7.77;;;;;;;4.15;61.38;95623.84;5055000;28;20236;-83
2021/03/09 01:35:53;;;;;;;8.90;7.97;;;;;;;4.14;61.30;95619.69;5054960;28;20233;-83
2021/03/09 01:38:20;;;;;;;9.30;8.10;;;;;;;4.19;61.23;95614.97;5054559;28;20750;-81
2021/03/09 01:40:46;;;;;;;8.53;7.47;;;;;;;4.09;61.40;95611.63;5055445;28;20216;-83
2021/03/09 01:43:12;;;;;;;8.17;7.23;;;;;;;4.13;61.20;95606.13;5055203;28;20224;-83
2021/03/09 01:45:38;;;;;;;8.70;7.80;;;;;;;4.16;60.96;95608.41;5055698;28;20224;-84
2021/03/09 01:48:06;;;;;;;8.67;7.73;;;;;;;4.16;61.34;95607.59;5055388;28;20241;-82
2021/03/09 01:50:36;;;;;;;8.20;7.40;;;;;;;4.19;61.35;95604.00;5055224;28;20234;-83
2021/03/09 01:53:04;;;;;;;9.50;7.53;;;;;;;4.19;60.69;95597.16;5055045;28;20709;-82
2021/03/09 01:55:31;;;;;;;8.83;7.90;;;;;;;4.16;61.55;95594.88;5055507;28;20221;-84
2021/03/09 01:57:57;;;;;;;8.13;7.33;;;;;;;4.19;60.71;95598.88;5054491;28;20229;-82
2021/03/09 02:00:24;;;;;;;8.90;7.97;;;;;;;4.12;60.80;95585.88;5054162;28;20429;-83
2021/03/09 02:02:49;;;;;;;15.93;7.57;;;;;;;4.06;61.43;95584.69;5055043;28;20255;-84
2021/03/09 02:05:16;;;;;;;9.03;8.00;;;;;;;4.02;61.57;95590.19;5055059;28;20198;-83
2021/03/09 02:07:42;;;;;;;9.77;7.80;;;;;;;4.02;61.57;95588.47;5055012;28;20525;-83
2021/03/09 02:10:12;;;;;;;8.63;7.73;;;;;;;3.93;61.72;95584.16;5055647;28;20229;-84
2021/03/09 02:13:04;;;;;;;9.27;8.27;;;;;;;3.93;61.75;95580.81;5055075;28;20229;-83
2021/03/09 02:15:35;;;;;;;9.73;8.10;;;;;;;3.94;61.73;95578.13;5054514;28;20248;-83
2021/03/09 02:18:12;;;;;;;9.13;7.90;;;;;;;3.80;61.98;95579.38;5054751;28;20236;-84
2021/03/09 02:21:24;;;;;;;9.53;8.53;;;;;;;3.74;62.52;95569.72;5054091;28;20245;-83
2021/03/09 02:24:15;;;;;;;8.70;7.80;;;;;;;3.77;62.26;95569.44;5052726;28;20221;-84
2021/03/09 02:27:09;;;;;;;10.67;8.53;;;;;;;3.75;62.36;95565.41;5055361;28;20233;-82
2021/03/09 02:30:01;;;;;;;9.10;8.10;;;;;;;3.73;62.79;95565.56;5055101;28;20232;-83
2021/03/09 02:32:30;;;;;;;9.93;8.63;;;;;;;3.85;62.30;95567.97;5048187;28;20221;-83
2021/03/09 02:34:59;;;;;;;8.97;8.03;;;;;;;3.83;61.88;95565.56;5055035;28;20278;-84
2021/03/09 02:37:31;;;;;;;8.90;8.00;;;;;;;3.81;62.36;95568.25;5054489;28;20232;-82
2021/03/09 02:39:59;;;;;;;8.40;7.50;;;;;;;3.74;62.19;95562.06;5054044;28;20233;-84
2021/03/09 02:42:27;;;;;;;9.23;8.23;;;;;;;3.67;62.33;95563.53;5054535;28;20233;-83
2021/03/09 02:44:57;;;;;;;9.67;8.67;;;;;;;3.51;63.57;95562.47;5056749;28;20237;-83
2021/03/09 02:47:24;;;;;;;8.97;8.07;;;;;;;3.58;63.05;95558.47;5060828;28;20248;-81
2021/03/09 02:49:54;;;;;;;9.47;8.53;;;;;;;3.70;62.61;95552.28;5072971;28;20201;-81
2021/03/09 02:52:22;;;;;;;9.47;8.47;;;;;;;3.78;62.69;95553.22;5073015;28;20213;-81
2021/03/09 02:54:51;;;;;;;8.77;7.90;;;;;;;3.83;61.89;95552.81;5074724;28;20247;-82
2021/03/09 02:57:18;;;;;;;10.40;8.10;;;;;;;3.75;62.16;95555.22;5076231;28;20221;-82
2021/03/09 02:59:45;;;;;;;9.03;8.07;;;;;;;3.66;62.67;95559.38;5075870;28;20295;-81
2021/03/09 03:02:12;;;;;;;10.33;8.37;;;;;;;3.66;62.58;95559.38;5074014;28;20227;-83
2021/03/09 03:04:42;;;;;;;8.97;8.07;;;;;;;3.67;62.21;95552.53;5066614;28;20205;-83
2021/03/09 03:07:11;;;;;;;9.53;8.53;;;;;;;3.61;62.61;95555.66;5059408;28;20229;-83
2021/03/09 03:09:39;;;;;;;9.57;8.60;;;;;;;3.63;62.56;95558.88;5058717;28;20237;-83
2021/03/09 03:12:06;;;;;;;9.23;8.33;;;;;;;3.60;62.28;95559.94;5059126;28;20582;-82
2021/03/09 03:14:35;;;;;;;12.90;8.50;;;;;;;3.57;62.92;95554.31;5058264;28;20244;-84
2021/03/09 03:17:03;;;;;;;9.20;8.10;;;;;;;3.63;62.66;95556.31;5058457;28;20258;-83
2021/03/09 03:19:31;;;;;;;8.77;7.87;;;;;;;3.46;62.63;95563.66;5058210;28;20220;-83
2021/03/09 03:21:58;;;;;;;11.70;8.93;;;;;;;3.44;62.94;95555.38;5057850;28;20291;-83
2021/03/09 03:24:26;;;;;;;9.63;8.60;;;;;;;3.47;62.55;95559.38;5057593;28;20271;-83
2021/03/09 03:26:53;;;;;;;10.53;8.93;;;;;;;3.50;62.69;95559.13;5057418;28;20238;-83
2021/03/09 03:29:20;;;;;;;10.10;8.33;;;;;;;3.41;62.84;95558.19;5057130;28;20241;-83
2021/03/09 03:31:47;;;;;;;9.40;8.43;;;;;;;3.40;63.38;95553.22;5058550;28;20632;-83
2021/03/09 03:34:13;;;;;;;11.27;8.30;;;;;;;3.45;62.83;95554.44;5057894;28;20229;-83
2021/03/09 03:36:40;;;;;;;9.90;8.90;;;;;;;3.50;62.76;95556.56;5057608;28;20249;-83
2021/03/09 03:39:06;;;;;;;9.87;8.80;;;;;;;3.49;62.66;95554.97;5057138;28;20225;-83
2021/03/09 03:41:33;;;;;;;9.47;8.57;;;;;;;3.47;61.68;95555.09;5057696;28;20229;-83
2021/03/09 03:43:59;;;;;;;11.50;8.10;;;;;;;3.42;61.76;95559.00;5057007;28;20212;-83
2021/03/09 03:46:25;;;;;;;9.63;8.33;;;;;;;3.45;61.72;95556.19;5057725;28;20193;-83
2021/03/09 03:48:51;;;;;;;10.90;8.37;;;;;;;3.45;61.43;95557.00;5057461;28;20247;-83
2021/03/09 03:51:19;;;;;;;9.60;8.53;;;;;;;3.45;61.41;95556.19;5056949;28;20229;-82
2021/03/09 03:53:53;;;;;;;9.43;8.53;;;;;;;3.47;61.68;95556.84;5057976;28;20229;-83
2021/03/09 03:56:28;;;;;;;11.37;9.50;;;;;;;3.50;61.87;95555.75;5057254;28;20232;-82
2021/03/09 03:59:01;;;;;;;10.60;9.40;;;;;;;3.43;62.02;95556.31;5057395;28;20221;-83
2021/03/09 04:01:28;;;;;;;10.27;9.17;;;;;;;3.44;61.88;95552.03;5056831;28;20591;-83
2021/03/09 04:03:56;;;;;;;11.87;8.67;;;;;;;3.35;61.75;95556.16;5056895;28;20287;-82
2021/03/09 04:06:25;;;;;;;10.17;8.90;;;;;;;3.33;61.70;95547.06;5057005;28;20225;-83
2021/03/09 04:08:52;;;;;;;10.67;8.73;;;;;;;3.22;62.00;95542.09;5057402;28;20372;-83
2021/03/09 04:11:18;;;;;;;11.93;8.30;;;;;;;3.21;62.58;95545.59;5056652;28;20212;-83
2021/03/09 04:13:45;;;;;;;9.50;8.50;;;;;;;3.27;62.36;95539.97;5057555;28;20651;-82
2021/03/09 04:16:14;;;;;;;10.03;8.87;;;;;;;3.33;62.27;95540.22;5056459;28;20229;-83
2021/03/09 04:18:41;;;;;;;9.87;8.37;;;;;;;3.29;61.94;95541.44;5056276;28;20249;-84
2021/03/09 04:21:08;;;;;;;10.57;9.10;;;;;;;3.21;62.46;95535.41;5056002;28;21006;-83
2021/03/09 04:23:36;;;;;;;10.13;9.03;;;;;;;3.09;62.06;95535.50;5056745;28;20225;-83
2021/03/09 04:26:02;;;;;;;10.80;9.23;;;;;;;3.15;62.40;95528.31;5056782;28;20220;-82
2021/03/09 04:28:29;;;;;;;11.17;9.20;;;;;;;3.12;62.11;95526.81;5056454;28;20606;-82
2021/03/09 04:30:55;;;;;;;10.33;9.10;;;;;;;3.02;62.38;95523.47;5055940;28;20232;-83
2021/03/09 04:33:25;;;;;;;9.90;8.90;;;;;;;3.08;62.47;95525.47;5056908;28;20229;-83
2021/03/09 04:35:50;;;;;;;9.70;8.70;;;;;;;3.08;62.48;95522.94;5055816;28;20236;-82
2021/03/09 04:38:17;;;;;;;13.90;9.07;;;;;;;3.05;62.19;95523.22;5056380;28;20217;-83
2021/03/09 04:40:44;;;;;;;18.03;9.80;;;;;;;2.99;62.42;95522.00;5055888;28;20209;-83
2021/03/09 04:43:10;;;;;;;14.33;9.50;;;;;;;2.98;62.92;95525.47;5055459;28;20221;-82
2021/03/09 04:45:36;;;;;;;14.50;9.37;;;;;;;2.90;62.90;95532.94;5055876;28;20245;-82
2021/03/09 04:48:03;;;;;;;13.37;8.60;;;;;;;2.92;63.34;95520.91;5055806;28;20236;-83
2021/03/09 04:50:30;;;;;;;10.60;9.00;;;;;;;3.07;62.48;95528.97;5056323;28;20222;-83
2021/03/09 04:52:57;;;;;;;11.10;9.30;;;;;;;3.20;61.90;95531.25;5055844;28;20606;-83
2021/03/09 04:55:25;;;;;;;10.47;9.37;;;;;;;3.26;62.10;95534.09;5055717;28;20449;-83
2021/03/09 04:57:52;;;;;;;10.53;9.27;;;;;;;3.22;61.09;95526.84;5055826;28;20252;-82
2021/03/09 05:00:20;;;;;;;10.57;8.57;;;;;;;3.08;61.74;95533.91;5055095;28;20225;-84
2021/03/09 05:02:47;;;;;;;11.50;9.13;;;;;;;3.05;61.85;95538.47;5054699;28;20229;-83
2021/03/09 05:05:14;;;;;;;9.53;8.43;;;;;;;3.05;61.78;95530.84;5055061;28;20208;-84
2021/03/09 05:07:42;;;;;;;9.87;8.87;;;;;;;3.08;61.59;95531.34;5055604;28;20632;-83
2021/03/09 05:10:08;;;;;;;9.50;8.57;;;;;;;3.06;61.85;95528.19;5054536;28;20228;-83
2021/03/09 05:12:35;;;;;;;13.23;9.07;;;;;;;2.92;61.95;95525.19;5054142;28;20287;-82
2021/03/09 05:15:02;;;;;;;9.30;8.30;;;;;;;2.93;61.63;95529.34;5054702;28;20786;-83
2021/03/09 05:17:28;;;;;;;10.33;8.47;;;;;;;2.88;61.63;95534.84;5054636;28;20243;-83
2021/03/09 05:19:54;;;;;;;10.03;8.23;;;;;;;2.88;61.72;95528.94;5054969;28;20701;-83
2021/03/09 05:22:23;;;;;;;9.53;8.23;;;;;;;2.83;62.07;95534.41;5055014;28;20751;-82
2021/03/09 05:24:50;;;;;;;9.63;8.63;;;;;;;2.86;62.15;95539.25;5054747;28;20225;-83
2021/03/09 05:27:16;;;;;;;10.87;8.33;;;;;;;2.78;62.15;95528.91;5054462;28;20233;-84
2021/03/09 05:29:42;;;;;;;9.83;8.77;;;;;;;2.71;62.52;95535.44;5054715;28;20229;-83
2021/03/09 05:32:08;;;;;;;10.23;9.10;;;;;;;2.66;62.38;95538.38;5054997;28;20196;-83
2021/03/09 05:34:34;;;;;;;12.90;8.70;;;;;;;2.53;62.72;95544.59;5055652;28;20596;-83
2021/03/09 05:37:00;;;;;;;10.00;8.37;;;;;;;2.52;62.99;95546.34;5054557;28;20700;-82
2021/03/09 05:39:26;;;;;;;10.87;8.87;;;;;;;2.67;62.88;95534.91;5049193;28;20253;-81
2021/03/09 05:41:53;;;;;;;11.03;8.77;;;;;;;2.71;62.43;95531.16;5049760;28;20233;-82
2021/03/09 05:44:19;;;;;;;11.50;9.30;;;;;;;2.88;61.95;95531.47;5053690;28;20600;-82
2021/03/09 05:46:46;;;;;;;11.37;9.33;;;;;;;2.94;61.71;95536.03;5054766;28;20202;-83
2021/03/09 05:49:12;;;;;;;10.70;8.70;;;;;;;2.92;61.62;95541.25;5054444;28;20585;-83
2021/03/09 05:51:38;;;;;;;12.37;9.57;;;;;;;2.95;61.71;95541.00;5054078;28;20255;-83
2021/03/09 05:54:05;;;;;;;10.73;8.73;;;;;;;2.99;61.29;95539.78;5050180;28;20239;-83
2021/03/09 05:56:31;;;;;;;11.37;8.50;;;;;;;3.02;61.07;95542.06;5058649;28;20229;-84
2021/03/09 05:59:00;;;;;;;10.50;9.23;;;;;;;3.09;60.91;95535.50;5052664;28;20312;-85
2021/03/09 06:01:26;;;;;;;11.50;9.03;;;;;;;3.12;61.14;95542.88;5053596;28;20221;-84
2021/03/09 06:03:53;;;;;;;10.93;9.17;;;;;;;3.14;60.89;95545.31;5050384;28;20318;-81
2021/03/09 06:06:19;;;;;;;12.07;9.10;;;;;;;3.04;61.32;95539.41;5051516;28;20813;-84
2021/03/09 06:08:47;;;;;;;13.90;9.60;;;;;;;3.10;60.89;95542.22;5054913;28;20248;-84
2021/03/09 06:11:17;;;;;;;29.13;19.73;;;;;;;3.11;61.09;95545.56;5055088;28;20201;-83
2021/03/09 06:13:44;;;;;;;13.33;11.33;;;;;;;3.22;60.96;95544.66;5055026;28;20205;-84
2021/03/09 06:16:11;;;;;;;12.67;10.87;;;;;;;3.24;61.09;95546.13;5053887;28;20225;-82
2021/03/09 06:18:38;;;;;;;10.97;9.60;;;;;;;3.24;61.29;95545.31;5054658;28;20241;-83
2021/03/09 06:21:08;;;;;;;11.23;9.90;;;;;;;3.27;61.14;95556.00;5053738;28;20221;-83
2021/03/09 06:23:35;;;;;;;11.73;9.87;;;;;;;3.34;61.15;95553.75;5053751;28;20245;-83
2021/03/09 06:26:01;;;;;;;12.83;9.87;;;;;;;3.35;60.98;95556.16;5055790;28;20205;-82
2021/03/09 06:28:30;;;;;;;13.47;9.80;;;;;;;3.43;61.00;95560.59;5055293;28;20590;-82
2021/03/09 06:30:56;;;;;;;13.83;10.43;;;;;;;3.41;61.13;95555.66;5058927;28;20233;-84
2021/03/09 06:33:29;;;;;;;14.90;10.97;;;;;;;3.36;62.44;95554.44;5059352;28;20231;-82
2021/03/09 06:35:57;;;;;;;11.97;10.37;;;;;;;3.38;61.53;95555.91;5058847;28;20236;-81
2021/03/09 06:38:25;;;;;;;11.80;10.33;;;;;;;3.56;61.29;95558.59;5058300;28;20248;-84
2021/03/09 06:41:11;;;;;;;14.03;11.50;;;;;;;3.46;62.04;95550.16;5058199;28;20223;-81
2021/03/09 06:43:39;;;;;;;17.10;11.40;;;;;;;3.53;61.37;95555.50;5059259;28;20247;-83
2021/03/09 06:46:18;;;;;;;17.37;11.13;;;;;;;3.56;61.82;95558.59;5059730;28;20248;-83
2021/03/09 06:48:49;;;;;;;15.63;11.90;;;;;;;3.58;62.09;95561.00;5059550;28;20229;-84
2021/03/09 06:51:29;;;;;;;15.97;12.03;;;;;;;3.83;61.72;95563.00;5058669;28;20663;-83
2021/03/09 06:54:41;;;;;;;13.67;11.13;;;;;;;4.08;60.65;95557.31;5058666;28;20220;-82
2021/03/09 07:01:16;;;;;;;14.67;11.90;;;;;;;4.68;59.37;95557.81;5008001;28;20429;-84
2021/03/09 07:04:14;;;;;;;16.47;12.20;;;;;;;4.82;59.44;95559.09;5005751;28;20231;-84
2021/03/09 07:06:52;;;;;;;13.53;12.10;;;;;;;5.09;58.89;95563.38;4995746;28;20230;-82
2021/03/09 07:09:18;;;;;;;14.27;12.20;;;;;;;5.19;58.46;95567.50;5020947;28;20233;-83
2021/03/09 07:11:44;;;;;;;50.40;35.70;;;;;;;5.32;58.37;95569.69;5056037;28;20282;-84
2021/03/09 07:14:12;;;;;;;18.83;15.07;;;;;;;5.64;57.87;95576.03;5054630;28;20213;-83
2021/03/09 07:16:39;;;;;;;17.90;11.77;;;;;;;5.76;57.32;95569.78;5054674;28;20209;-83
2021/03/09 07:19:07;;;;;;;18.33;12.53;;;;;;;5.91;56.79;95576.00;5054319;28;20237;-81
2021/03/09 07:21:36;;;;;;;14.77;12.10;;;;;;;5.97;57.01;95577.13;5054301;28;20232;-84
2021/03/09 07:24:05;;;;;;;15.10;11.80;;;;;;;6.07;56.80;95572.75;5054191;28;20226;-82
2021/03/09 07:26:30;;;;;;;13.37;11.97;;;;;;;6.20;56.43;95583.38;5055364;28;20245;-83
2021/03/09 07:29:02;;;;;;;12.90;11.47;;;;;;;6.34;56.26;95579.50;5055774;28;20335;-82
2021/03/09 07:31:32;;;;;;;16.37;13.40;;;;;;;6.48;56.12;95584.84;5056761;28;20217;-81
2021/03/09 07:33:59;;;;;;;21.57;12.33;;;;;;;6.50;56.00;95590.63;5055803;28;20654;-85
2021/03/09 07:36:28;;;;;;;16.33;12.03;;;;;;;6.61;55.83;95576.75;5056193;28;20221;-86
2021/03/09 07:38:56;;;;;;;16.20;12.37;;;;;;;6.43;56.53;95576.03;5057360;28;20229;-82
2021/03/09 07:41:23;;;;;;;13.70;12.30;;;;;;;6.53;56.35;95587.78;5056803;28;20259;-83
2021/03/09 07:43:49;;;;;;;15.67;12.57;;;;;;;6.70;55.55;95573.31;5056932;28;20229;-82
2021/03/09 07:46:16;;;;;;;16.00;12.90;;;;;;;6.99;55.59;95574.69;5055258;28;20245;-83
2021/03/09 07:48:43;;;;;;;14.80;12.70;;;;;;;7.37;54.87;95563.13;5055017;28;20244;-82
2021/03/09 07:51:09;;;;;;;20.17;15.53;;;;;;;7.77;53.75;95570.84;5055496;28;20238;-82
2021/03/09 07:53:35;;;;;;;18.10;15.17;;;;;;;8.06;53.16;95565.28;5056163;28;20221;-82
2021/03/09 07:56:13;;;;;;;16.83;12.93;;;;;;;8.31;52.87;95577.09;5054531;28;20256;-80
2021/03/09 07:58:41;;;;;;;18.43;11.67;;;;;;;8.54;52.21;95566.19;5054304;28;20240;-82
2021/03/09 08:17:27;;;;;;;14.70;11.23;;;;;;;7.94;52.17;95571.66;4969180;28;20311;-84
2021/03/09 08:19:53;;;;;;;15.83;12.40;;;;;;;8.25;52.21;95561.56;4993025;28;20734;-81
2021/03/09 08:22:36;;;;;;;13.40;11.60;;;;;;;8.70;50.73;95573.81;5009860;28;20291;-84
2021/03/09 08:25:03;;;;;;;15.60;12.33;;;;;;;8.81;49.87;95573.50;5014714;28;20249;-83
2021/03/09 08:27:39;;;;;;;14.20;12.50;;;;;;;8.80;49.65;95568.53;5013860;28;20223;-82
2021/03/09 08:30:38;;;;;;;19.63;12.50;;;;;;;8.35;50.09;95566.53;5013410;28;20231;-81
2021/03/09 08:33:33;;;;;;;15.23;12.80;;;;;;;7.66;52.36;95567.81;5042774;28;20237;-83
2021/03/09 08:36:00;;;;;;;13.83;12.27;;;;;;;7.77;52.53;95568.28;5053499;28;20602;-82
2021/03/09 08:38:27;;;;;;;15.50;12.93;;;;;;;8.29;51.25;95568.75;5054835;28;20653;-84
2021/03/09 08:41:17;;;;;;;15.83;12.07;;;;;;;8.81;49.60;95562.41;5055550;28;20208;-83
2021/03/09 08:43:43;;;;;;;13.83;12.43;;;;;;;8.98;49.58;95561.38;5054882;28;20223;-83
2021/03/09 08:46:13;;;;;;;18.60;12.87;;;;;;;9.23;49.35;95569.78;5054371;28;20222;-84
2021/03/09 08:48:50;;;;;;;15.67;12.57;;;;;;;9.25;48.43;95562.69;5055008;28;20236;-82
2021/03/09 08:51:46;;;;;;;16.77;13.07;;;;;;;9.07;48.24;95567.28;5053789;28;20229;-84
2021/03/09 08:54:29;;;;;;;14.97;12.57;;;;;;;9.43;48.74;95565.03;5056476;28;20287;-84
2021/03/09 08:57:00;;;;;;;14.00;12.50;;;;;;;9.64;46.98;95562.63;5055139;28;20268;-83
2021/03/09 08:59:28;;;;;;;13.37;11.97;;;;;;;9.95;47.09;95558.22;5052457;28;20232;-83
2021/03/09 09:02:03;;;;;;;14.53;12.00;;;;;;;10.02;45.07;95564.25;5054510;28;20796;-84
2021/03/09 09:04:30;;;;;;;15.50;12.67;;;;;;;10.05;45.98;95565.69;5035603;28;20213;-82
2021/03/09 09:06:56;;;;;;;17.87;13.53;;;;;;;10.11;45.45;95562.44;5035335;28;20764;-84
2021/03/09 09:09:34;;;;;;;12.93;11.53;;;;;;;10.31;45.54;95555.84;5034976;28;20582;-83
2021/03/09 09:12:18;;;;;;;14.23;12.80;;;;;;;10.58;45.50;95551.88;5034357;28;20221;-85
2021/03/09 09:14:44;;;;;;;34.40;26.90;;;;;;;10.78;44.74;95556.47;5034150;28;20241;-83
2021/03/09 09:17:10;;;;;;;17.67;14.33;;;;;;;10.97;44.59;95555.94;5034472;28;20232;-83
2021/03/09 09:19:37;;;;;;;13.27;11.60;;;;;;;11.17;44.26;95551.03;5035391;28;20222;-85
2021/03/09 09:22:03;;;;;;;18.30;12.33;;;;;;;11.31;43.43;95552.78;5035176;28;20265;-85
2021/03/09 09:24:29;;;;;;;12.70;11.37;;;;;;;11.42;43.05;95549.72;5036122;28;20226;-85
2021/03/09 09:27:00;;;;;;;15.40;12.23;;;;;;;11.58;43.54;95552.06;5035585;28;20226;-85
2021/03/09 09:29:26;;;;;;;12.63;11.33;;;;;;;11.61;42.73;95549.13;5034696;28;20226;-82
2021/03/09 09:31:57;;;;;;;13.13;11.73;;;;;;;11.55;41.72;95538.75;5037603;28;20205;-83
2021/03/09 09:34:33;;;;;;;12.93;11.53;;;;;;;10.90;42.97;95545.56;5038446;28;20271;-83
2021/03/09 09:37:14;;;;;;;18.63;11.50;;;;;;;11.02;43.09;95543.31;5038238;28;20225;-85
2021/03/09 09:39:41;;;;;;;17.13;11.97;;;;;;;11.11;41.99;95547.41;5036571;28;20237;-83
2021/03/09 09:42:15;;;;;;;51.23;15.27;;;;;;;10.91;42.47;95547.19;5036911;28;20233;-83
2021/03/09 09:44:42;;;;;;;19.03;12.10;;;;;;;10.98;42.78;95545.47;5036639;28;20233;-85
2021/03/09 09:47:10;;;;;;;14.60;10.87;;;;;;;10.91;41.78;95542.03;5035276;28;20204;-84
2021/03/09 09:49:37;;;;;;;15.47;11.30;;;;;;;11.19;42.65;95543.91;5035950;28;20257;-84
2021/03/09 09:52:12;;;;;;;15.70;11.80;;;;;;;11.41;41.04;95543.78;5037464;28;20221;-84
2021/03/09 09:54:38;;;;;;;12.37;11.07;;;;;;;11.35;40.87;95534.19;5034344;28;20225;-84
2021/03/09 09:57:09;;;;;;;12.13;10.93;;;;;;;11.42;40.54;95531.69;5034250;28;20230;-84
2021/03/09 09:59:35;;;;;;;17.10;10.87;;;;;;;11.34;40.13;95535.19;5034103;28;20268;-84
2021/03/09 10:02:25;;;;;;;14.87;11.20;;;;;;;11.37;40.93;95531.44;5035714;28;20843;-83
2021/03/09 10:04:51;;;;;;;12.67;10.57;;;;;;;11.54;40.43;95534.59;5037550;28;20206;-85
2021/03/09 10:07:21;;;;;;;13.60;10.47;;;;;;;11.66;39.41;95536.50;5037579;28;20226;-84
2021/03/09 10:10:00;;;;;;;14.87;10.83;;;;;;;11.54;38.95;95530.25;5038172;28;20238;-83
2021/03/09 10:12:39;;;;;;;11.50;10.30;;;;;;;11.30;39.36;95531.38;5038117;28;20226;-85
2021/03/09 10:15:19;;;;;;;11.87;10.77;;;;;;;11.38;40.23;95530.44;5037588;28;20232;-84
2021/03/09 10:17:45;;;;;;;12.13;10.70;;;;;;;11.53;40.21;95526.06;5038718;28;20217;-84
2021/03/09 10:20:20;;;;;;;11.70;10.47;;;;;;;11.68;39.83;95520.84;5037592;28;20208;-84
2021/03/09 10:22:47;;;;;;;21.63;16.50;;;;;;;11.86;39.79;95523.00;5038251;28;20859;-83
2021/03/09 10:25:15;;;;;;;16.50;12.17;;;;;;;11.95;39.50;95525.25;5037118;28;20291;-84
2021/03/09 10:28:00;;;;;;;12.13;10.40;;;;;;;12.02;39.17;95523.53;5036235;28;20241;-82
2021/03/09 10:30:35;;;;;;;10.77;9.73;;;;;;;12.07;39.19;95528.94;5037403;28;20229;-84
2021/03/09 10:33:08;;;;;;;13.97;9.90;;;;;;;12.03;39.06;95516.59;5038755;28;20252;-83
2021/03/09 10:35:34;;;;;;;11.07;10.07;;;;;;;11.98;38.45;95516.34;5038396;28;20741;-84
2021/03/09 10:38:01;;;;;;;16.47;9.93;;;;;;;11.95;38.83;95516.72;5039418;28;20198;-83
2021/03/09 10:40:33;;;;;;;10.03;9.03;;;;;;;12.06;38.65;95517.03;5036159;28;20264;-82
2021/03/09 10:43:01;;;;;;;11.60;9.57;;;;;;;11.85;37.98;95509.31;5037393;28;20241;-82
2021/03/09 10:45:29;;;;;;;10.13;9.23;;;;;;;11.80;38.96;95510.84;5028987;28;20222;-82
2021/03/09 10:47:57;;;;;;;10.30;9.13;;;;;;;11.87;39.15;95509.94;5038460;28;20234;-84
2021/03/09 10:50:24;;;;;;;11.80;9.47;;;;;;;11.81;39.05;95513.25;5039081;28;20213;-84
2021/03/09 10:52:50;;;;;;;12.87;9.03;;;;;;;11.60;41.80;95516.59;5040129;28;20194;-84
2021/03/09 10:55:17;;;;;;;9.43;8.13;;;;;;;11.25;38.15;95512.28;5040283;28;20294;-85
2021/03/09 10:57:44;;;;;;;8.80;7.90;;;;;;;10.45;37.38;95518.22;5040001;28;20230;-83
2021/03/09 11:00:13;;;;;;;9.60;8.27;;;;;;;10.27;38.06;95517.78;5037628;28;20222;-83
2021/03/09 11:02:42;;;;;;;8.10;7.40;;;;;;;10.21;38.64;95519.25;5038376;28;20897;-83
2021/03/09 11:05:09;;;;;;;7.93;7.13;;;;;;;10.18;39.54;95519.59;5037403;28;20202;-83
2021/03/09 11:07:36;;;;;;;8.90;8.00;;;;;;;10.14;39.25;95520.94;5037385;28;20229;-82
2021/03/09 11:10:03;;;;;;;8.60;7.80;;;;;;;10.08;39.41;95513.91;5036611;28;20230;-84
2021/03/09 11:12:29;;;;;;;8.77;7.97;;;;;;;9.89;39.36;95520.34;5036092;28;20226;-83
2021/03/09 11:14:59;;;;;;;8.07;7.27;;;;;;;9.76;39.81;95521.91;5035115;28;20312;-83
2021/03/09 11:17:25;;;;;;;10.43;7.40;;;;;;;9.88;39.78;95523.88;5036069;28;20245;-82
2021/03/09 11:19:51;;;;;;;7.97;7.20;;;;;;;10.07;39.62;95516.66;5036037;28;20249;-83
2021/03/09 11:22:17;;;;;;;9.17;7.60;;;;;;;10.07;38.12;95521.78;5036229;28;20222;-83
2021/03/09 11:24:55;;;;;;;;;;;;;;;;;;;;;
2021/03/09 11:27:21;;;;;;;11.83;8.80;;;;;;;10.44;37.92;95521.78;5036000;28;20312;-82
2021/03/09 11:29:48;;;;;;;11.87;8.30;;;;;;;10.57;38.61;95516.03;5036462;28;20234;-82
2021/03/09 11:32:16;;;;;;;8.73;7.33;;;;;;;10.71;38.05;95516.03;5036349;28;20641;-81
2021/03/09 11:34:42;;;;;;;8.67;7.77;;;;;;;10.75;37.31;95513.88;5036538;28;20598;-82
2021/03/09 11:37:13;;;;;;;11.40;8.40;;;;;;;10.83;38.40;95508.63;5036320;28;20226;-83
2021/03/09 11:39:39;;;;;;;8.40;7.50;;;;;;;10.85;38.02;95509.25;5035644;28;20312;-82
2021/03/09 11:42:06;;;;;;;8.97;7.53;;;;;;;10.82;37.35;95493.34;5035218;28;20322;-82
2021/03/09 11:44:32;;;;;;;9.27;7.00;;;;;;;10.68;37.57;95488.03;5035894;28;20226;-84
2021/03/09 11:46:59;;;;;;;9.33;8.20;;;;;;;10.45;38.50;95499.41;5036396;28;20206;-84
2021/03/09 11:49:25;;;;;;;10.33;7.47;;;;;;;10.47;38.74;95502.59;5035657;28;20226;-83
2021/03/09 11:51:56;;;;;;;9.23;6.93;;;;;;;10.65;39.86;95506.41;5035982;28;20284;-83
2021/03/09 11:54:23;;;;;;;8.97;7.23;;;;;;;10.88;39.18;95495.22;5036154;28;20654;-83
2021/03/09 11:56:51;;;;;;;9.77;7.63;;;;;;;11.05;38.69;95484.50;5036841;28;20230;-83
2021/03/09 11:59:17;;;;;;;8.03;7.00;;;;;;;11.11;36.63;95488.16;5035410;28;20480;-85
2021/03/09 12:01:43;;;;;;;8.00;7.20;;;;;;;11.12;37.15;95482.03;5035413;28;20206;-85